sensor_id;sensor_type;location;lat;lon;timestamp;pressure;altitude;pressure_sealevel;temperature;humidity
63090;BME280;49174;43.198;27.824;2023-09-12T00:00:55;101757.53;;;15.37;93.99
63090;BME280;49174;43.198;27.824;2023-09-12T00:03:22;101756.47;;;15.32;93.50
63090;BME280;49174;43.198;27.824;2023-09-12T00:05:58;101758.75;;;15.22;93.06
63090;BME280;49174;43.198;27.824;2023-09-12T00:08:24;101764.13;;;15.15;94.80
63090;BME280;49174;43.198;27.824;2023-09-12T00:11:06;101758.69;;;15.08;95.66
63090;BME280;49174;43.198;27.824;2023-09-12T00:13:36;101760.53;;;15.01;95.88
63090;BME280;49174;43.198;27.824;2023-09-12T00:16:01;101759.03;;;14.98;96.11
63090;BME280;49174;43.198;27.824;2023-09-12T00:18:27;101760.72;;;15.00;96.84
63090;BME280;49174;43.198;27.824;2023-09-12T00:20:53;101755.53;;;15.05;97.00
63090;BME280;49174;43.198;27.824;2023-09-12T00:23:21;101750.94;;;15.05;96.74
63090;BME280;49174;43.198;27.824;2023-09-12T00:25:47;101751.38;;;15.09;96.90
63090;BME280;49174;43.198;27.824;2023-09-12T00:28:12;101752.00;;;15.11;97.08
63090;BME280;49174;43.198;27.824;2023-09-12T00:30:38;101745.75;;;15.10;96.53
63090;BME280;49174;43.198;27.824;2023-09-12T00:33:03;101748.88;;;15.07;96.16
63090;BME280;49174;43.198;27.824;2023-09-12T00:35:29;101745.50;;;15.05;95.85
63090;BME280;49174;43.198;27.824;2023-09-12T00:37:55;101754.06;;;15.02;95.06
63090;BME280;49174;43.198;27.824;2023-09-12T00:40:20;101751.28;;;14.95;95.00
63090;BME280;49174;43.198;27.824;2023-09-12T00:42:46;101750.03;;;14.91;96.03
63090;BME280;49174;43.198;27.824;2023-09-12T00:45:12;101749.19;;;14.91;95.83
63090;BME280;49174;43.198;27.824;2023-09-12T00:47:37;101746.88;;;14.88;95.07
63090;BME280;49174;43.198;27.824;2023-09-12T00:50:05;101743.53;;;14.86;95.90
63090;BME280;49174;43.198;27.824;2023-09-12T00:52:31;101753.75;;;14.84;96.29
63090;BME280;49174;43.198;27.824;2023-09-12T00:54:58;101762.94;;;14.83;96.07
63090;BME280;49174;43.198;27.824;2023-09-12T00:57:24;101756.06;;;14.87;95.68
63090;BME280;49174;43.198;27.824;2023-09-12T00:59:51;101758.38;;;14.90;95.47
63090;BME280;49174;43.198;27.824;2023-09-12T01:02:20;101759.81;;;14.86;95.06
63090;BME280;49174;43.198;27.824;2023-09-12T01:04:49;101763.53;;;14.78;96.32
63090;BME280;49174;43.198;27.824;2023-09-12T01:07:14;101756.63;;;14.75;96.56
63090;BME280;49174;43.198;27.824;2023-09-12T01:09:40;101757.66;;;14.74;96.79
63090;BME280;49174;43.198;27.824;2023-09-12T01:12:06;101761.66;;;14.79;96.09
63090;BME280;49174;43.198;27.824;2023-09-12T01:14:32;101764.38;;;14.79;95.85
63090;BME280;49174;43.198;27.824;2023-09-12T01:16:58;101759.16;;;14.77;96.03
63090;BME280;49174;43.198;27.824;2023-09-12T01:19:24;101764.38;;;14.79;95.43
63090;BME280;49174;43.198;27.824;2023-09-12T01:27:30;101765.03;;;14.87;94.63
63090;BME280;49174;43.198;27.824;2023-09-12T01:30:01;101762.31;;;14.87;94.55
63090;BME280;49174;43.198;27.824;2023-09-12T01:32:29;101755.19;;;14.80;94.52
63090;BME280;49174;43.198;27.824;2023-09-12T01:34:55;101755.78;;;14.75;94.02
63090;BME280;49174;43.198;27.824;2023-09-12T01:37:20;101761.19;;;14.68;93.62
63090;BME280;49174;43.198;27.824;2023-09-12T01:39:46;101755.84;;;14.53;95.17
63090;BME280;49174;43.198;27.824;2023-09-12T01:42:15;101764.31;;;14.44;95.42
63090;BME280;49174;43.198;27.824;2023-09-12T01:44:45;101769.06;;;14.35;96.05
63090;BME280;49174;43.198;27.824;2023-09-12T01:47:13;101766.53;;;14.34;95.38
63090;BME280;49174;43.198;27.824;2023-09-12T01:49:42;101764.03;;;14.32;96.02
63090;BME280;49174;43.198;27.824;2023-09-12T01:52:09;101765.88;;;14.31;96.00
63090;BME280;49174;43.198;27.824;2023-09-12T01:54:36;101765.06;;;14.31;96.22
63090;BME280;49174;43.198;27.824;2023-09-12T01:57:02;101770.28;;;14.33;96.20
63090;BME280;49174;43.198;27.824;2023-09-12T01:59:29;101761.91;;;14.27;96.69
63090;BME280;49174;43.198;27.824;2023-09-12T02:01:55;101761.06;;;14.27;96.06
63090;BME280;49174;43.198;27.824;2023-09-12T02:04:20;101761.25;;;14.25;95.86
63090;BME280;49174;43.198;27.824;2023-09-12T02:06:46;101761.47;;;14.24;96.24
63090;BME280;49174;43.198;27.824;2023-09-12T02:09:11;101760.16;;;14.20;96.04
63090;BME280;49174;43.198;27.824;2023-09-12T02:11:37;101747.25;;;14.22;95.83
63090;BME280;49174;43.198;27.824;2023-09-12T02:14:02;101752.44;;;14.23;95.36
63090;BME280;49174;43.198;27.824;2023-09-12T02:16:29;101751.38;;;14.18;96.13
63090;BME280;49174;43.198;27.824;2023-09-12T02:18:55;101750.28;;;14.12;95.32
63090;BME280;49174;43.198;27.824;2023-09-12T02:21:20;101751.91;;;14.06;96.20
63090;BME280;49174;43.198;27.824;2023-09-12T02:23:46;101758.31;;;13.99;96.65
63090;BME280;49174;43.198;27.824;2023-09-12T02:26:11;101759.47;;;13.90;97.81
63090;BME280;49174;43.198;27.824;2023-09-12T02:28:37;101752.75;;;13.85;98.10
63090;BME280;49174;43.198;27.824;2023-09-12T02:31:02;101752.75;;;13.85;98.34
63090;BME280;49174;43.198;27.824;2023-09-12T02:33:28;101753.97;;;13.83;98.35
63090;BME280;49174;43.198;27.824;2023-09-12T02:35:53;101756.13;;;13.88;98.12
63090;BME280;49174;43.198;27.824;2023-09-12T02:38:19;101757.97;;;13.87;97.57
63090;BME280;49174;43.198;27.824;2023-09-12T02:40:44;101762.97;;;13.83;97.89
63090;BME280;49174;43.198;27.824;2023-09-12T02:43:10;101758.56;;;13.82;97.88
63090;BME280;49174;43.198;27.824;2023-09-12T02:45:35;101762.97;;;13.83;98.20
63090;BME280;49174;43.198;27.824;2023-09-12T02:48:01;101759.03;;;13.86;98.04
63090;BME280;49174;43.198;27.824;2023-09-12T02:50:26;101765.97;;;13.95;98.47
63090;BME280;49174;43.198;27.824;2023-09-12T02:52:52;101761.44;;;13.96;97.79
63090;BME280;49174;43.198;27.824;2023-09-12T02:55:17;101762.00;;;13.91;97.69
63090;BME280;49174;43.198;27.824;2023-09-12T02:57:43;101763.16;;;13.82;98.19
63090;BME280;49174;43.198;27.824;2023-09-12T03:00:09;101751.41;;;13.75;98.56
63090;BME280;49174;43.198;27.824;2023-09-12T03:02:36;101767.50;;;13.76;99.90
63090;BME280;49174;43.198;27.824;2023-09-12T03:05:02;101759.19;;;13.84;99.66
63090;BME280;49174;43.198;27.824;2023-09-12T03:07:29;101760.50;;;13.89;99.38
63090;BME280;49174;43.198;27.824;2023-09-12T03:09:54;101758.84;;;13.88;99.53
63090;BME280;49174;43.198;27.824;2023-09-12T03:12:20;101762.78;;;13.85;100.00
63090;BME280;49174;43.198;27.824;2023-09-12T03:14:45;101765.66;;;13.83;100.00
63090;BME280;49174;43.198;27.824;2023-09-12T03:17:11;101764.44;;;13.86;100.00
63090;BME280;49174;43.198;27.824;2023-09-12T03:19:36;101763.22;;;13.89;99.48
63090;BME280;49174;43.198;27.824;2023-09-12T03:22:03;101766.97;;;13.88;99.27
63090;BME280;49174;43.198;27.824;2023-09-12T03:24:28;101768.38;;;13.83;99.54
63090;BME280;49174;43.198;27.824;2023-09-12T03:26:54;101766.31;;;13.85;100.00
63090;BME280;49174;43.198;27.824;2023-09-12T03:29:19;101761.91;;;13.84;99.21
63090;BME280;49174;43.198;27.824;2023-09-12T03:31:45;101769.59;;;13.81;100.00
63090;BME280;49174;43.198;27.824;2023-09-12T03:34:10;101772.31;;;13.81;100.00
63090;BME280;49174;43.198;27.824;2023-09-12T03:36:36;101770.22;;;13.76;99.71
63090;BME280;49174;43.198;27.824;2023-09-12T03:39:01;101779.09;;;13.70;99.46
63090;BME280;49174;43.198;27.824;2023-09-12T03:41:28;101778.19;;;13.63;99.94
63090;BME280;49174;43.198;27.824;2023-09-12T03:43:54;101777.09;;;13.57;99.95
63090;BME280;49174;43.198;27.824;2023-09-12T03:46:21;101785.13;;;13.51;100.00
63090;BME280;49174;43.198;27.824;2023-09-12T03:48:47;101785.91;;;13.45;100.00
63090;BME280;49174;43.198;27.824;2023-09-12T03:51:13;101787.78;;;13.44;100.00
63090;BME280;49174;43.198;27.824;2023-09-12T03:53:38;101790.31;;;13.46;100.00
63090;BME280;49174;43.198;27.824;2023-09-12T03:56:04;101790.09;;;13.47;100.00
63090;BME280;49174;43.198;27.824;2023-09-12T03:58:29;101796.84;;;13.51;100.00
63090;BME280;49174;43.198;27.824;2023-09-12T04:00:55;101794.56;;;13.55;100.00
63090;BME280;49174;43.198;27.824;2023-09-12T04:03:21;101800.28;;;13.60;100.00
63090;BME280;49174;43.198;27.824;2023-09-12T04:05:46;101802.88;;;13.68;100.00
63090;BME280;49174;43.198;27.824;2023-09-12T04:08:13;101806.94;;;13.79;100.00
63090;BME280;49174;43.198;27.824;2023-09-12T04:10:38;101802.25;;;13.88;100.00
63090;BME280;49174;43.198;27.824;2023-09-12T04:13:04;101802.69;;;13.91;100.00
63090;BME280;49174;43.198;27.824;2023-09-12T04:15:29;101810.63;;;13.93;100.00
63090;BME280;49174;43.198;27.824;2023-09-12T04:17:55;101805.94;;;14.01;100.00
63090;BME280;49174;43.198;27.824;2023-09-12T04:20:20;101811.41;;;14.08;100.00
63090;BME280;49174;43.198;27.824;2023-09-12T04:22:46;101814.00;;;14.16;100.00
63090;BME280;49174;43.198;27.824;2023-09-12T04:25:11;101813.44;;;14.21;100.00
63090;BME280;49174;43.198;27.824;2023-09-12T04:27:37;101812.44;;;14.28;100.00
63090;BME280;49174;43.198;27.824;2023-09-12T04:30:03;101820.00;;;14.33;100.00
63090;BME280;49174;43.198;27.824;2023-09-12T04:32:29;101811.28;;;14.38;100.00
63090;BME280;49174;43.198;27.824;2023-09-12T04:34:55;101812.16;;;14.45;100.00
63090;BME280;49174;43.198;27.824;2023-09-12T04:37:20;101811.75;;;14.48;100.00
63090;BME280;49174;43.198;27.824;2023-09-12T04:39:46;101815.81;;;14.52;100.00
63090;BME280;49174;43.198;27.824;2023-09-12T04:42:12;101804.72;;;14.53;100.00
63090;BME280;49174;43.198;27.824;2023-09-12T04:44:41;101804.84;;;14.67;100.00
63090;BME280;49174;43.198;27.824;2023-09-12T04:47:07;101808.63;;;14.72;100.00
63090;BME280;49174;43.198;27.824;2023-09-12T04:49:33;101808.47;;;14.81;100.00
63090;BME280;49174;43.198;27.824;2023-09-12T04:51:59;101807.28;;;14.90;100.00
63090;BME280;49174;43.198;27.824;2023-09-12T04:54:25;101810.69;;;14.98;100.00
63090;BME280;49174;43.198;27.824;2023-09-12T04:56:50;101810.72;;;15.05;100.00
63090;BME280;49174;43.198;27.824;2023-09-12T04:59:16;101812.63;;;15.11;100.00
63090;BME280;49174;43.198;27.824;2023-09-12T05:01:42;101816.84;;;15.14;100.00
63090;BME280;49174;43.198;27.824;2023-09-12T05:04:07;101809.94;;;15.18;100.00
63090;BME280;49174;43.198;27.824;2023-09-12T05:06:33;101815.19;;;15.19;100.00
63090;BME280;49174;43.198;27.824;2023-09-12T05:08:59;101817.28;;;15.17;100.00
63090;BME280;49174;43.198;27.824;2023-09-12T05:11:25;101814.78;;;15.23;100.00
63090;BME280;49174;43.198;27.824;2023-09-12T05:13:50;101815.69;;;15.30;100.00
63090;BME280;49174;43.198;27.824;2023-09-12T05:16:16;101824.69;;;15.37;100.00
63090;BME280;49174;43.198;27.824;2023-09-12T05:18:42;101822.59;;;15.39;100.00
63090;BME280;49174;43.198;27.824;2023-09-12T05:21:07;101816.56;;;15.44;100.00
63090;BME280;49174;43.198;27.824;2023-09-12T05:23:33;101819.94;;;15.52;100.00
63090;BME280;49174;43.198;27.824;2023-09-12T05:25:58;101827.94;;;15.60;100.00
63090;BME280;49174;43.198;27.824;2023-09-12T05:28:24;101825.91;;;15.69;100.00
63090;BME280;49174;43.198;27.824;2023-09-12T05:30:50;101828.03;;;15.80;100.00
63090;BME280;49174;43.198;27.824;2023-09-12T05:33:15;101828.69;;;15.89;100.00
63090;BME280;49174;43.198;27.824;2023-09-12T05:35:41;101827.84;;;15.95;100.00
63090;BME280;49174;43.198;27.824;2023-09-12T05:38:10;101824.50;;;16.06;100.00
63090;BME280;49174;43.198;27.824;2023-09-12T05:40:35;101824.31;;;16.15;100.00
63090;BME280;49174;43.198;27.824;2023-09-12T05:43:01;101823.06;;;16.24;100.00
63090;BME280;49174;43.198;27.824;2023-09-12T05:45:28;101820.38;;;16.30;100.00
63090;BME280;49174;43.198;27.824;2023-09-12T05:47:56;101823.91;;;16.38;99.83
63090;BME280;49174;43.198;27.824;2023-09-12T05:50:22;101814.69;;;16.45;99.43
63090;BME280;49174;43.198;27.824;2023-09-12T05:52:48;101821.41;;;16.56;98.44
63090;BME280;49174;43.198;27.824;2023-09-12T05:55:14;101822.03;;;16.65;97.79
63090;BME280;49174;43.198;27.824;2023-09-12T05:57:40;101825.38;;;16.73;98.16
63090;BME280;49174;43.198;27.824;2023-09-12T06:00:07;101820.16;;;16.79;98.53
63090;BME280;49174;43.198;27.824;2023-09-12T06:02:38;101817.63;;;16.90;97.97
63090;BME280;49174;43.198;27.824;2023-09-12T06:05:04;101824.09;;;17.03;96.94
63090;BME280;49174;43.198;27.824;2023-09-12T06:07:30;101830.16;;;17.11;95.15
63090;BME280;49174;43.198;27.824;2023-09-12T06:09:57;101829.50;;;17.16;95.57
63090;BME280;49174;43.198;27.824;2023-09-12T06:12:23;101830.34;;;17.23;94.10
63090;BME280;49174;43.198;27.824;2023-09-12T06:14:49;101825.47;;;17.32;93.61
63090;BME280;49174;43.198;27.824;2023-09-12T06:17:14;101832.34;;;17.41;94.53
63090;BME280;49174;43.198;27.824;2023-09-12T06:19:40;101838.84;;;17.47;93.41
63090;BME280;49174;43.198;27.824;2023-09-12T06:22:05;101833.56;;;17.58;93.45
63090;BME280;49174;43.198;27.824;2023-09-12T06:24:31;101837.06;;;17.72;93.03
63090;BME280;49174;43.198;27.824;2023-09-12T06:26:57;101837.44;;;17.82;91.82
63090;BME280;49174;43.198;27.824;2023-09-12T06:29:23;101843.28;;;17.93;90.82
63090;BME280;49174;43.198;27.824;2023-09-12T06:31:48;101834.00;;;18.00;89.62
63090;BME280;49174;43.198;27.824;2023-09-12T06:34:15;101832.69;;;18.09;89.46
63090;BME280;49174;43.198;27.824;2023-09-12T06:36:40;101843.28;;;18.24;88.55
63090;BME280;49174;43.198;27.824;2023-09-12T06:39:10;101836.69;;;18.39;89.27
63090;BME280;49174;43.198;27.824;2023-09-12T06:41:35;101838.44;;;18.51;88.31
63090;BME280;49174;43.198;27.824;2023-09-12T06:44:01;101845.28;;;18.67;87.40
63090;BME280;49174;43.198;27.824;2023-09-12T06:46:28;101845.56;;;18.84;86.98
63090;BME280;49174;43.198;27.824;2023-09-12T06:48:53;101852.34;;;19.00;86.57
63090;BME280;49174;43.198;27.824;2023-09-12T06:51:23;101843.78;;;19.15;86.07
63090;BME280;49174;43.198;27.824;2023-09-12T06:53:49;101846.75;;;19.32;85.32
63090;BME280;49174;43.198;27.824;2023-09-12T06:56:14;101849.84;;;19.54;85.04
63090;BME280;49174;43.198;27.824;2023-09-12T06:58:40;101839.81;;;19.66;84.29
63090;BME280;49174;43.198;27.824;2023-09-12T07:01:06;101851.78;;;19.83;83.99
63090;BME280;49174;43.198;27.824;2023-09-12T07:03:32;101848.78;;;20.03;83.51
63090;BME280;49174;43.198;27.824;2023-09-12T07:05:58;101855.41;;;20.26;83.18
63090;BME280;49174;43.198;27.824;2023-09-12T07:08:24;101856.41;;;20.43;82.79
63090;BME280;49174;43.198;27.824;2023-09-12T07:10:50;101863.97;;;20.60;80.56
63090;BME280;49174;43.198;27.824;2023-09-12T07:13:15;101851.47;;;20.75;80.62
63090;BME280;49174;43.198;27.824;2023-09-12T07:15:41;101858.25;;;20.96;80.34
63090;BME280;49174;43.198;27.824;2023-09-12T07:18:07;101861.69;;;21.15;78.66
63090;BME280;49174;43.198;27.824;2023-09-12T07:20:34;101857.97;;;21.33;78.68
63090;BME280;49174;43.198;27.824;2023-09-12T07:22:59;101860.81;;;21.50;78.70
63090;BME280;49174;43.198;27.824;2023-09-12T07:25:25;101860.88;;;21.67;77.89
63090;BME280;49174;43.198;27.824;2023-09-12T07:27:51;101857.03;;;21.80;75.81
63090;BME280;49174;43.198;27.824;2023-09-12T07:30:17;101847.28;;;22.01;75.87
63090;BME280;49174;43.198;27.824;2023-09-12T07:32:42;101855.59;;;22.18;75.00
63090;BME280;49174;43.198;27.824;2023-09-12T07:35:08;101858.84;;;22.32;74.17
63090;BME280;49174;43.198;27.824;2023-09-12T07:37:35;101859.00;;;22.42;72.90
63090;BME280;49174;43.198;27.824;2023-09-12T07:40:01;101857.03;;;22.54;73.14
63090;BME280;49174;43.198;27.824;2023-09-12T07:42:26;101857.94;;;22.77;70.38
63090;BME280;49174;43.198;27.824;2023-09-12T07:44:52;101852.91;;;22.90;69.37
63090;BME280;49174;43.198;27.824;2023-09-12T07:47:18;101849.25;;;23.02;68.59
63090;BME280;49174;43.198;27.824;2023-09-12T07:49:44;101853.03;;;23.17;66.67
63090;BME280;49174;43.198;27.824;2023-09-12T07:52:10;101862.28;;;23.28;66.45
63090;BME280;49174;43.198;27.824;2023-09-12T07:54:35;101854.47;;;23.42;65.21
63090;BME280;49174;43.198;27.824;2023-09-12T07:57:02;101854.66;;;23.57;63.44
63090;BME280;49174;43.198;27.824;2023-09-12T07:59:28;101850.94;;;23.69;63.27
63090;BME280;49174;43.198;27.824;2023-09-12T08:01:54;101855.19;;;23.76;61.87
63090;BME280;49174;43.198;27.824;2023-09-12T08:04:20;101854.41;;;23.81;61.32
63090;BME280;49174;43.198;27.824;2023-09-12T08:06:45;101858.34;;;23.90;61.03
63090;BME280;49174;43.198;27.824;2023-09-12T08:09:11;101849.38;;;24.00;60.03
63090;BME280;49174;43.198;27.824;2023-09-12T08:11:38;101851.91;;;24.06;61.53
63090;BME280;49174;43.198;27.824;2023-09-12T08:14:03;101857.53;;;24.17;59.53
63090;BME280;49174;43.198;27.824;2023-09-12T08:16:30;101853.47;;;24.24;59.55
63090;BME280;49174;43.198;27.824;2023-09-12T08:18:57;101856.00;;;24.31;60.51
63090;BME280;49174;43.198;27.824;2023-09-12T08:21:23;101862.25;;;24.43;60.40
63090;BME280;49174;43.198;27.824;2023-09-12T08:23:49;101849.88;;;24.51;59.85
63090;BME280;49174;43.198;27.824;2023-09-12T08:26:14;101857.91;;;24.52;58.78
63090;BME280;49174;43.198;27.824;2023-09-12T08:28:40;101865.53;;;24.45;58.94
63090;BME280;49174;43.198;27.824;2023-09-12T08:31:05;101858.66;;;24.48;59.08
63090;BME280;49174;43.198;27.824;2023-09-12T08:33:31;101855.09;;;24.47;60.36
63090;BME280;49174;43.198;27.824;2023-09-12T08:35:57;101857.41;;;24.61;58.99
63090;BME280;49174;43.198;27.824;2023-09-12T08:38:22;101853.53;;;24.62;60.71
63090;BME280;49174;43.198;27.824;2023-09-12T08:40:49;101855.72;;;24.60;60.17
63090;BME280;49174;43.198;27.824;2023-09-12T08:43:15;101853.53;;;24.62;60.35
63090;BME280;49174;43.198;27.824;2023-09-12T08:45:41;101856.91;;;24.69;58.99
63090;BME280;49174;43.198;27.824;2023-09-12T08:48:10;101854.44;;;24.72;58.33
63090;BME280;49174;43.198;27.824;2023-09-12T08:50:36;101853.09;;;24.75;59.27
63090;BME280;49174;43.198;27.824;2023-09-12T08:53:02;101858.94;;;24.84;59.65
63090;BME280;49174;43.198;27.824;2023-09-12T08:55:28;101854.81;;;24.86;59.10
63090;BME280;49174;43.198;27.824;2023-09-12T08:57:55;101857.88;;;24.90;59.29
63090;BME280;49174;43.198;27.824;2023-09-12T09:00:23;101854.91;;;24.96;59.93
63090;BME280;49174;43.198;27.824;2023-09-12T09:02:50;101852.69;;;24.98;59.93
63090;BME280;49174;43.198;27.824;2023-09-12T09:05:16;101849.66;;;25.00;59.68
63090;BME280;49174;43.198;27.824;2023-09-12T09:07:43;101852.47;;;25.05;60.38
63090;BME280;49174;43.198;27.824;2023-09-12T09:10:16;101846.63;;;24.96;59.38
63090;BME280;49174;43.198;27.824;2023-09-12T09:12:44;101861.41;;;24.80;60.51
63090;BME280;49174;43.198;27.824;2023-09-12T09:15:29;101855.00;;;24.69;60.11
63090;BME280;49174;43.198;27.824;2023-09-12T09:17:57;101853.97;;;24.81;60.94
63090;BME280;49174;43.198;27.824;2023-09-12T09:20:31;101858.19;;;24.93;59.58
63090;BME280;49174;43.198;27.824;2023-09-12T09:23:01;101853.00;;;25.02;59.23
63090;BME280;49174;43.198;27.824;2023-09-12T09:25:30;101851.72;;;25.15;60.52
63090;BME280;49174;43.198;27.824;2023-09-12T09:27:56;101846.25;;;25.25;60.50
63090;BME280;49174;43.198;27.824;2023-09-12T09:30:41;101851.59;;;25.47;58.70
63090;BME280;49174;43.198;27.824;2023-09-12T09:33:07;101853.00;;;25.60;57.57
63090;BME280;49174;43.198;27.824;2023-09-12T09:35:33;101849.16;;;25.61;57.08
63090;BME280;49174;43.198;27.824;2023-09-12T09:37:59;101851.63;;;25.62;56.12
63090;BME280;49174;43.198;27.824;2023-09-12T09:40:24;101850.84;;;25.72;56.27
63090;BME280;49174;43.198;27.824;2023-09-12T09:42:59;101853.41;;;25.84;57.70
63090;BME280;49174;43.198;27.824;2023-09-12T09:45:27;101850.94;;;26.03;58.03
63090;BME280;49174;43.198;27.824;2023-09-12T09:47:56;101863.69;;;26.14;55.74
63090;BME280;49174;43.198;27.824;2023-09-12T09:50:22;101863.16;;;26.27;55.56
63090;BME280;49174;43.198;27.824;2023-09-12T09:52:54;101855.41;;;26.35;54.97
63090;BME280;49174;43.198;27.824;2023-09-12T09:55:20;101856.78;;;26.37;54.81
63090;BME280;49174;43.198;27.824;2023-09-12T09:57:46;101852.09;;;26.43;54.90
63090;BME280;49174;43.198;27.824;2023-09-12T10:00:13;101860.13;;;26.49;54.78
63090;BME280;49174;43.198;27.824;2023-09-12T10:02:41;101855.41;;;26.60;55.10
63090;BME280;49174;43.198;27.824;2023-09-12T10:05:09;101858.19;;;26.70;53.22
63090;BME280;49174;43.198;27.824;2023-09-12T10:07:37;101851.00;;;26.69;53.12
63090;BME280;49174;43.198;27.824;2023-09-12T10:10:04;101846.28;;;26.70;53.31
63090;BME280;49174;43.198;27.824;2023-09-12T10:12:35;101844.09;;;26.72;54.44
63090;BME280;49174;43.198;27.824;2023-09-12T10:15:01;101846.81;;;26.82;53.39
63090;BME280;49174;43.198;27.824;2023-09-12T10:17:32;101848.75;;;26.82;53.28
63090;BME280;49174;43.198;27.824;2023-09-12T10:20:03;101844.91;;;26.72;53.16
63090;BME280;49174;43.198;27.824;2023-09-12T10:22:52;101837.13;;;26.80;54.14
63090;BME280;49174;43.198;27.824;2023-09-12T10:25:21;101844.31;;;26.91;52.29
63090;BME280;49174;43.198;27.824;2023-09-12T10:27:49;101842.09;;;26.93;50.92
63090;BME280;49174;43.198;27.824;2023-09-12T10:30:15;101844.28;;;26.96;50.69
63090;BME280;49174;43.198;27.824;2023-09-12T10:32:42;101831.81;;;26.99;51.63
63090;BME280;49174;43.198;27.824;2023-09-12T10:35:09;101826.84;;;27.01;51.60
63090;BME280;49174;43.198;27.824;2023-09-12T10:37:37;101834.84;;;27.02;51.48
63090;BME280;49174;43.198;27.824;2023-09-12T10:40:05;101834.59;;;26.99;51.01
63090;BME280;49174;43.198;27.824;2023-09-12T10:42:33;101835.41;;;27.04;51.02
63090;BME280;49174;43.198;27.824;2023-09-12T10:45:00;101837.03;;;27.10;49.90
63090;BME280;49174;43.198;27.824;2023-09-12T10:47:29;101833.22;;;27.16;50.13
63090;BME280;49174;43.198;27.824;2023-09-12T10:49:56;101826.25;;;27.19;50.60
63090;BME280;49174;43.198;27.824;2023-09-12T10:52:28;101818.19;;;27.28;50.98
63090;BME280;49174;43.198;27.824;2023-09-12T10:54:55;101828.44;;;27.27;49.91
63090;BME280;49174;43.198;27.824;2023-09-12T10:57:21;101821.78;;;27.28;49.42
63090;BME280;49174;43.198;27.824;2023-09-12T11:02:32;101817.09;;;27.13;48.61
63090;BME280;49174;43.198;27.824;2023-09-12T11:04:58;101810.19;;;27.16;49.13
63090;BME280;49174;43.198;27.824;2023-09-12T11:12:43;101815.72;;;27.16;48.25
63090;BME280;49174;43.198;27.824;2023-09-12T11:15:09;101807.69;;;27.14;49.18
63090;BME280;49174;43.198;27.824;2023-09-12T11:17:41;101813.75;;;27.27;48.64
63090;BME280;49174;43.198;27.824;2023-09-12T11:20:08;101816.25;;;27.28;50.04
63090;BME280;49174;43.198;27.824;2023-09-12T11:22:38;101808.50;;;27.25;48.60
63090;BME280;49174;43.198;27.824;2023-09-12T11:25:24;101801.28;;;27.24;48.41
63090;BME280;49174;43.198;27.824;2023-09-12T11:30:23;101805.50;;;27.16;49.63
63090;BME280;49174;43.198;27.824;2023-09-12T11:32:57;101796.06;;;27.17;49.08
63090;BME280;49174;43.198;27.824;2023-09-12T11:35:24;101799.09;;;27.21;48.58
63090;BME280;49174;43.198;27.824;2023-09-12T11:37:59;101794.41;;;27.16;47.58
63090;BME280;49174;43.198;27.824;2023-09-12T11:40:41;101796.06;;;27.12;48.19
63090;BME280;49174;43.198;27.824;2023-09-12T11:43:08;101796.06;;;27.12;48.45
63090;BME280;49174;43.198;27.824;2023-09-12T11:45:44;101795.50;;;27.21;48.49
63090;BME280;49174;43.198;27.824;2023-09-12T11:48:09;101799.91;;;27.22;48.70
63090;BME280;49174;43.198;27.824;2023-09-12T11:50:36;101787.16;;;27.26;48.51
63090;BME280;49174;43.198;27.824;2023-09-12T11:53:09;101792.47;;;27.17;47.52
63090;BME280;49174;43.198;27.824;2023-09-12T11:55:47;101786.34;;;27.15;48.48
63090;BME280;49174;43.198;27.824;2023-09-12T11:58:13;101787.50;;;27.09;49.70
63090;BME280;49174;43.198;27.824;2023-09-12T12:00:44;101783.84;;;27.13;48.25
63090;BME280;49174;43.198;27.824;2023-09-12T12:03:17;101786.38;;;27.10;48.04
63090;BME280;49174;43.198;27.824;2023-09-12T12:05:43;101785.00;;;27.02;47.85
63090;BME280;49174;43.198;27.824;2023-09-12T12:08:10;101777.00;;;27.01;47.57
63090;BME280;49174;43.198;27.824;2023-09-12T12:10:36;101786.66;;;27.08;47.12
63090;BME280;49174;43.198;27.824;2023-09-12T12:13:04;101783.84;;;27.13;47.69
63090;BME280;49174;43.198;27.824;2023-09-12T12:15:30;101778.59;;;27.12;47.90
63090;BME280;49174;43.198;27.824;2023-09-12T12:17:56;101779.16;;;27.14;48.14
63090;BME280;49174;43.198;27.824;2023-09-12T12:20:23;101775.53;;;27.13;46.13
63090;BME280;49174;43.198;27.824;2023-09-12T12:22:48;101778.63;;;27.07;46.52
63090;BME280;49174;43.198;27.824;2023-09-12T12:25:18;101779.19;;;27.04;47.38
63090;BME280;49174;43.198;27.824;2023-09-12T12:27:44;101776.69;;;27.02;47.96
63090;BME280;49174;43.198;27.824;2023-09-12T12:30:11;101783.66;;;26.94;48.16
63090;BME280;49174;43.198;27.824;2023-09-12T12:32:41;101769.84;;;26.89;47.56
63090;BME280;49174;43.198;27.824;2023-09-12T12:35:09;101775.13;;;26.86;47.61
63090;BME280;49174;43.198;27.824;2023-09-12T12:37:36;101761.28;;;26.81;48.33
63090;BME280;49174;43.198;27.824;2023-09-12T12:40:02;101769.03;;;26.79;47.80
63090;BME280;49174;43.198;27.824;2023-09-12T12:42:37;101765.72;;;26.71;47.90
63090;BME280;49174;43.198;27.824;2023-09-12T12:45:17;101762.13;;;26.66;49.05
63090;BME280;49174;43.198;27.824;2023-09-12T12:47:43;101768.53;;;26.66;48.75
63090;BME280;49174;43.198;27.824;2023-09-12T12:50:15;101760.22;;;26.61;48.51
63090;BME280;49174;43.198;27.824;2023-09-12T12:52:41;101761.31;;;26.60;48.60